createdAt,value
2018-12-25T00:01:48.557Z,0.90
2018-12-25T00:04:16.713Z,1.23
2018-12-25T00:06:44.925Z,1.43
2018-12-25T00:09:13.045Z,0.87
2018-12-25T00:11:41.266Z,1.20
2018-12-25T00:14:09.397Z,1.10
2018-12-25T00:16:37.596Z,1.07
2018-12-25T00:19:06.530Z,1.20
2018-12-25T00:21:34.660Z,1.10
2018-12-25T00:24:02.817Z,0.90
2018-12-25T00:26:32.980Z,1.70
2018-12-25T00:29:04.025Z,1.20
2018-12-25T00:31:32.208Z,1.37
2018-12-25T00:34:00.348Z,1.30
2018-12-25T00:36:28.724Z,1.10
2018-12-25T00:38:56.909Z,1.10
2018-12-25T00:41:25.088Z,1.30
2018-12-25T00:43:53.230Z,1.20
2018-12-25T00:46:21.482Z,1.10
2018-12-25T00:48:49.629Z,1.17
2018-12-25T00:51:17.765Z,1.07
2018-12-25T00:53:45.941Z,0.90
2018-12-25T00:56:14.349Z,1.23
2018-12-25T00:58:42.532Z,1.07
2018-12-25T01:01:10.770Z,1.20
2018-12-25T01:03:39.802Z,1.13
2018-12-25T01:06:07.998Z,1.00
2018-12-25T01:08:36.106Z,0.97
2018-12-25T01:11:04.289Z,1.03
2018-12-25T01:13:32.405Z,0.80
2018-12-25T01:16:00.685Z,1.10
2018-12-25T01:18:28.929Z,1.10
2018-12-25T01:20:57.177Z,0.80
2018-12-25T01:23:25.397Z,1.07
2018-12-25T01:25:54.494Z,1.20
2018-12-25T01:28:22.760Z,1.00
2018-12-25T01:30:51.813Z,0.87
2018-12-25T01:33:20.137Z,0.90
2018-12-25T01:35:48.695Z,1.00
2018-12-25T01:38:16.979Z,0.80
2018-12-25T01:40:45.226Z,0.90
2018-12-25T01:43:13.524Z,0.90
2018-12-25T01:45:41.749Z,0.97
2018-12-25T01:48:10.028Z,0.90
2018-12-25T01:50:38.244Z,0.70
2018-12-25T01:53:06.942Z,0.87
2018-12-25T01:55:35.169Z,1.17
2018-12-25T01:58:03.266Z,1.40
2018-12-25T02:00:31.481Z,1.10
2018-12-25T02:02:59.648Z,1.10
2018-12-25T02:05:27.876Z,1.03
2018-12-25T02:07:56.042Z,1.13
2018-12-25T02:10:24.252Z,1.10
2018-12-25T02:12:52.580Z,1.00
2018-12-25T02:15:20.759Z,0.90
2018-12-25T02:17:48.904Z,0.90
2018-12-25T02:20:17.170Z,1.10
2018-12-25T02:22:45.483Z,0.90
2018-12-25T02:25:13.714Z,1.13
2018-12-25T02:27:41.868Z,1.00
2018-12-25T02:30:09.996Z,1.00
2018-12-25T02:32:38.476Z,0.90
2018-12-25T02:35:06.757Z,0.80
2018-12-25T02:37:34.984Z,0.90
2018-12-25T02:40:03.436Z,1.00
2018-12-25T02:42:31.531Z,0.80
2018-12-25T02:44:59.746Z,0.90
2018-12-25T02:47:28.150Z,1.10
2018-12-25T02:49:56.289Z,0.80
2018-12-25T02:52:24.463Z,1.00
2018-12-25T02:54:52.581Z,0.93
2018-12-25T02:57:20.724Z,1.30
2018-12-25T02:59:48.873Z,0.80
2018-12-25T03:02:17.015Z,1.17
2018-12-25T03:04:45.285Z,1.00
2018-12-25T03:07:13.512Z,1.10
2018-12-25T03:09:42.184Z,0.67
2018-12-25T03:12:10.400Z,1.17
2018-12-25T03:14:38.601Z,1.00
2018-12-25T03:17:06.790Z,1.23
2018-12-25T03:19:35.025Z,0.97
2018-12-25T03:22:04.046Z,1.13
2018-12-25T03:24:32.221Z,0.70
2018-12-25T03:27:00.356Z,1.00
2018-12-25T03:29:28.584Z,1.10
2018-12-25T03:31:56.749Z,1.00
2018-12-25T03:34:24.960Z,1.10
2018-12-25T03:36:53.211Z,1.00
2018-12-25T03:39:21.439Z,1.30
2018-12-25T03:41:49.889Z,0.90
2018-12-25T03:44:18.049Z,0.90
2018-12-25T03:46:46.325Z,0.90
2018-12-25T03:49:14.422Z,0.70
2018-12-25T03:51:43.637Z,0.80
2018-12-25T03:54:11.819Z,0.93
2018-12-25T03:56:40.061Z,0.80
2018-12-25T03:59:08.260Z,0.87
2018-12-25T04:01:36.392Z,1.20
2018-12-25T04:04:04.530Z,1.27
2018-12-25T04:06:32.745Z,0.80
2018-12-25T04:09:00.850Z,0.97
2018-12-25T04:11:29.065Z,0.80
2018-12-25T04:13:57.148Z,1.30
2018-12-25T04:16:25.661Z,1.07
2018-12-25T04:18:53.840Z,0.90
2018-12-25T04:21:21.999Z,0.70
2018-12-25T04:23:50.101Z,0.77
2018-12-25T04:26:18.535Z,1.10
2018-12-25T04:28:47.049Z,1.00
2018-12-25T04:31:15.292Z,1.00
2018-12-25T04:33:43.364Z,1.10
2018-12-25T04:36:11.585Z,0.80
2018-12-25T04:38:40.077Z,1.10
2018-12-25T04:41:08.348Z,1.20
2018-12-25T04:43:36.530Z,1.00
2018-12-25T04:46:04.737Z,1.10
2018-12-25T04:48:32.823Z,0.90
2018-12-25T04:51:01.044Z,1.03
2018-12-25T04:53:30.450Z,1.20
2018-12-25T04:55:58.716Z,1.00
2018-12-25T04:58:27.521Z,1.23
2018-12-25T05:00:55.714Z,0.90
2018-12-25T05:03:23.898Z,0.87
2018-12-25T05:05:52.193Z,0.83
2018-12-25T05:08:20.530Z,0.90
2018-12-25T05:10:48.753Z,1.10
2018-12-25T05:13:17.343Z,1.00
2018-12-25T05:15:45.509Z,1.00
2018-12-25T05:18:13.641Z,1.10
2018-12-25T05:20:41.685Z,0.80
2018-12-25T05:23:09.815Z,0.73
2018-12-25T05:25:37.827Z,1.13
2018-12-25T05:28:05.954Z,0.70
2018-12-25T05:30:34.000Z,0.97
2018-12-25T05:33:02.092Z,1.10
2018-12-25T05:35:30.174Z,0.80
2018-12-25T05:37:58.368Z,0.80
2018-12-25T05:40:26.782Z,1.20
2018-12-25T05:42:54.923Z,0.50
2018-12-25T05:45:24.042Z,1.10
2018-12-25T05:47:52.175Z,1.00
2018-12-25T05:50:20.273Z,1.00
2018-12-25T05:52:48.689Z,0.97
2018-12-25T05:55:16.824Z,1.00
2018-12-25T05:57:44.833Z,1.10
2018-12-25T06:00:13.030Z,1.13
2018-12-25T06:02:41.165Z,1.10
2018-12-25T06:05:09.267Z,0.80
2018-12-25T06:07:37.349Z,1.27
2018-12-25T06:10:05.481Z,1.20
2018-12-25T06:12:34.176Z,1.07
2018-12-25T06:15:02.321Z,1.00
2018-12-25T06:17:31.216Z,1.10
2018-12-25T06:19:59.309Z,0.80
2018-12-25T06:22:27.390Z,1.00
2018-12-25T06:24:55.486Z,1.50
2018-12-25T06:27:23.555Z,1.00
2018-12-25T06:29:51.968Z,1.00
2018-12-25T06:32:19.993Z,1.10
2018-12-25T06:34:48.132Z,1.03
2018-12-25T06:37:16.141Z,0.70
2018-12-25T06:39:44.329Z,1.20
2018-12-25T06:42:12.343Z,1.10
2018-12-25T06:44:40.469Z,1.30
2018-12-25T06:47:08.562Z,0.80
2018-12-25T06:49:36.699Z,1.17
2018-12-25T06:52:04.844Z,1.00
2018-12-25T06:54:33.049Z,0.90
2018-12-25T06:57:01.219Z,1.63
2018-12-25T06:59:29.737Z,1.60
2018-12-25T07:01:57.829Z,1.10
2018-12-25T07:04:27.036Z,1.10
2018-12-25T07:06:55.197Z,0.80
2018-12-25T07:09:23.643Z,1.20
2018-12-25T07:11:51.885Z,1.03
2018-12-25T07:14:20.062Z,0.80
2018-12-25T07:16:48.316Z,1.20
2018-12-25T07:19:16.569Z,1.10
2018-12-25T07:21:44.797Z,1.27
2018-12-25T07:24:12.931Z,1.10
2018-12-25T07:26:41.173Z,0.90
2018-12-25T07:29:09.373Z,1.07
2018-12-25T07:31:37.908Z,1.37
2018-12-25T07:34:06.162Z,1.07
2018-12-25T07:36:34.709Z,1.30
2018-12-25T07:39:03.987Z,1.00
2018-12-25T07:41:33.069Z,1.20
2018-12-25T07:44:01.296Z,1.13
2018-12-25T07:46:29.537Z,1.20
2018-12-25T07:48:57.845Z,1.30
2018-12-25T07:51:26.354Z,1.13
2018-12-25T07:53:54.430Z,1.50
2018-12-25T07:56:22.586Z,1.10
2018-12-25T07:58:50.759Z,1.23
2018-12-25T08:01:19.047Z,1.00
2018-12-25T08:03:50.084Z,1.40
2018-12-25T08:06:18.346Z,1.30
2018-12-25T08:08:46.515Z,1.40
2018-12-25T08:11:14.656Z,1.20
2018-12-25T08:13:42.894Z,1.07
2018-12-25T08:16:11.027Z,0.80
2018-12-25T08:18:40.220Z,1.07
2018-12-25T08:21:08.412Z,0.70
2018-12-25T08:23:36.868Z,1.20
2018-12-25T08:26:05.084Z,1.30
2018-12-25T08:28:33.272Z,1.30
2018-12-25T08:31:02.253Z,0.53
2018-12-25T08:33:30.387Z,1.30
2018-12-25T08:35:58.564Z,1.10
2018-12-25T08:38:26.797Z,1.30
2018-12-25T08:40:55.040Z,1.20
2018-12-25T08:43:23.276Z,1.53
2018-12-25T08:45:51.564Z,1.10
2018-12-25T08:48:20.662Z,1.20
2018-12-25T08:50:48.992Z,1.30
2018-12-25T08:53:19.389Z,1.30
2018-12-25T08:55:47.748Z,1.07
2018-12-25T08:58:15.989Z,1.20
2018-12-25T09:00:44.128Z,1.30
2018-12-25T09:03:12.362Z,1.20
2018-12-25T09:05:40.580Z,1.37
2018-12-25T09:08:09.269Z,1.30
2018-12-25T09:10:37.509Z,1.10
2018-12-25T09:13:06.701Z,1.00
2018-12-25T09:15:35.669Z,1.23
2018-12-25T09:18:03.896Z,1.43
2018-12-25T09:20:31.989Z,1.57
2018-12-25T09:23:00.311Z,1.13
2018-12-25T09:25:28.433Z,1.30
2018-12-25T09:27:56.690Z,1.43
2018-12-25T09:30:24.870Z,1.30
2018-12-25T09:32:53.140Z,1.40
2018-12-25T09:35:21.469Z,1.13
2018-12-25T09:37:49.875Z,1.13
2018-12-25T09:40:18.077Z,1.30
2018-12-25T09:42:46.254Z,1.70
2018-12-25T09:45:14.624Z,1.10
2018-12-25T09:47:43.076Z,1.00
2018-12-25T09:50:11.736Z,1.30
2018-12-25T09:52:39.940Z,1.30
2018-12-25T09:55:08.197Z,1.30
2018-12-25T09:57:36.500Z,1.20
2018-12-25T10:00:05.187Z,1.17
2018-12-25T10:02:34.020Z,1.33
2018-12-25T10:05:02.230Z,1.30
2018-12-25T10:07:30.422Z,1.10
2018-12-25T10:09:58.684Z,1.27
2018-12-25T10:12:27.310Z,1.30
2018-12-25T10:14:55.930Z,1.20
2018-12-25T10:17:24.084Z,0.90
2018-12-25T10:19:52.428Z,1.37
2018-12-25T10:22:20.694Z,1.20
2018-12-25T10:24:49.068Z,1.02
2018-12-25T10:27:17.247Z,1.30
2018-12-25T10:29:45.758Z,1.30
2018-12-25T10:32:13.982Z,1.20
2018-12-25T10:34:42.269Z,1.33
2018-12-25T10:37:10.860Z,1.20
2018-12-25T10:39:39.093Z,1.40
2018-12-25T10:42:08.302Z,1.63
2018-12-25T10:44:36.600Z,1.53
2018-12-25T10:47:04.957Z,1.10
2018-12-25T10:49:33.248Z,1.20
2018-12-25T10:52:01.513Z,1.30
2018-12-25T10:54:29.768Z,1.20
2018-12-25T10:56:57.895Z,1.37
2018-12-25T10:59:26.877Z,1.40
2018-12-25T11:01:55.100Z,1.70
2018-12-25T11:04:23.280Z,1.47
2018-12-25T11:06:53.521Z,1.53
2018-12-25T11:09:21.888Z,1.33
2018-12-25T11:11:50.883Z,1.40
2018-12-25T11:14:19.035Z,1.00
2018-12-25T11:16:47.152Z,1.30
2018-12-25T11:19:15.316Z,0.90
2018-12-25T11:21:44.420Z,1.47
2018-12-25T11:24:12.871Z,0.90
2018-12-25T11:26:41.179Z,1.60
2018-12-25T11:29:09.416Z,1.20
2018-12-25T11:31:37.677Z,1.10
2018-12-25T11:34:05.895Z,0.90
2018-12-25T11:36:34.075Z,1.30
2018-12-25T11:39:04.188Z,1.20
2018-12-25T11:41:32.333Z,1.20
2018-12-25T11:44:00.626Z,1.10
2018-12-25T11:46:28.923Z,1.20
2018-12-25T11:48:56.949Z,0.70
2018-12-25T11:51:25.262Z,1.00
2018-12-25T11:53:53.431Z,1.10
2018-12-25T11:56:21.710Z,1.40
2018-12-25T11:58:49.933Z,1.47
2018-12-25T12:01:18.045Z,1.30
2018-12-25T12:03:46.213Z,1.20
2018-12-25T12:06:14.492Z,0.87
2018-12-25T12:08:42.732Z,1.00
2018-12-25T12:11:10.803Z,1.20
2018-12-25T12:13:39.033Z,1.40
2018-12-25T12:16:07.160Z,1.47
2018-12-25T12:18:35.370Z,1.60
2018-12-25T12:21:04.046Z,1.40
2018-12-25T12:23:32.212Z,1.30
2018-12-25T12:26:02.268Z,1.00
2018-12-25T12:28:30.841Z,1.20
2018-12-25T12:30:59.012Z,1.23
2018-12-25T12:33:27.226Z,1.70
2018-12-25T12:35:55.372Z,1.10
2018-12-25T12:38:23.567Z,1.30
2018-12-25T12:40:51.712Z,0.80
2018-12-25T12:43:19.873Z,0.80
2018-12-25T12:45:48.084Z,1.00
2018-12-25T12:48:16.181Z,1.00
2018-12-25T12:50:44.782Z,0.93
2018-12-25T12:53:12.915Z,0.70
2018-12-25T12:55:41.227Z,0.93
2018-12-25T12:58:09.533Z,0.83
2018-12-25T13:00:37.730Z,0.60
2018-12-25T13:03:06.120Z,0.93
2018-12-25T13:05:34.575Z,0.90
2018-12-25T13:08:03.059Z,1.10
2018-12-25T13:10:31.251Z,1.00
2018-12-25T13:12:59.530Z,0.80
2018-12-25T13:15:30.188Z,1.10
2018-12-25T13:17:58.993Z,1.63
2018-12-25T13:20:28.273Z,1.43
2018-12-25T13:23:00.277Z,1.00
2018-12-25T13:25:31.091Z,1.40
2018-12-25T13:28:03.641Z,0.90
2018-12-25T13:30:35.410Z,1.80
2018-12-25T13:33:08.922Z,1.00
2018-12-25T13:35:37.405Z,1.00
2018-12-25T13:38:05.866Z,1.00
2018-12-25T13:40:34.147Z,0.90
2018-12-25T13:43:02.315Z,0.90
2018-12-25T13:45:30.619Z,0.80
2018-12-25T13:47:58.884Z,0.80
2018-12-25T13:50:27.270Z,0.90
2018-12-25T13:53:02.566Z,1.00
2018-12-25T13:55:25.435Z,1.10
2018-12-25T13:57:54.028Z,1.10
2018-12-25T14:00:22.197Z,1.10
2018-12-25T14:02:51.361Z,0.90
2018-12-25T14:05:19.561Z,0.80
2018-12-25T14:07:47.660Z,0.90
2018-12-25T14:10:15.949Z,0.90
2018-12-25T14:12:45.448Z,0.70
2018-12-25T14:15:13.635Z,0.90
2018-12-25T14:17:41.830Z,1.00
2018-12-25T14:20:10.011Z,1.20
2018-12-25T14:22:38.170Z,0.80
2018-12-25T14:25:06.532Z,0.97
2018-12-25T14:27:37.460Z,0.87
2018-12-25T14:30:06.940Z,1.00
2018-12-25T14:32:35.161Z,0.90
2018-12-25T14:35:03.481Z,0.87
2018-12-25T14:37:31.904Z,0.80
2018-12-25T14:40:00.283Z,1.20
2018-12-25T14:42:28.533Z,0.80
2018-12-25T14:44:56.828Z,0.80
2018-12-25T14:47:25.092Z,0.80
2018-12-25T14:49:53.330Z,0.80
2018-12-25T14:52:21.570Z,0.73
2018-12-25T14:54:49.731Z,1.03
2018-12-25T14:57:18.266Z,0.90
2018-12-25T14:59:46.561Z,0.60
2018-12-25T15:02:14.762Z,0.87
2018-12-25T15:04:44.007Z,0.70
2018-12-25T15:07:12.377Z,0.87
2018-12-25T15:09:40.600Z,1.30
2018-12-25T15:12:08.819Z,1.00
2018-12-25T15:14:36.923Z,1.00
2018-12-25T15:17:05.218Z,0.90
2018-12-25T15:19:33.402Z,0.80
2018-12-25T15:22:02.288Z,0.80
2018-12-25T15:24:30.493Z,1.00
2018-12-25T15:26:58.918Z,0.90
2018-12-25T15:29:27.034Z,0.90
2018-12-25T15:31:55.277Z,0.80
2018-12-25T15:34:23.472Z,0.90
2018-12-25T15:36:52.633Z,1.00
2018-12-25T15:39:21.050Z,1.10
2018-12-25T15:42:45.946Z,0.97
2018-12-25T15:46:09.134Z,1.07
2018-12-25T15:48:37.380Z,0.80
2018-12-25T15:51:05.666Z,0.90
2018-12-25T15:53:37.125Z,0.80
2018-12-25T15:56:03.958Z,0.83
2018-12-25T15:58:32.331Z,0.63
2018-12-25T16:01:00.579Z,0.80
2018-12-25T16:03:28.754Z,0.40
2018-12-25T16:05:57.028Z,0.83
2018-12-25T16:08:25.641Z,0.90
2018-12-25T16:10:56.977Z,3.50
2018-12-25T16:13:26.132Z,2.30
2018-12-25T16:15:54.611Z,0.90
2018-12-25T16:18:25.554Z,1.50
2018-12-25T16:20:53.834Z,1.20
2018-12-25T16:24:07.053Z,1.50
2018-12-25T16:26:35.227Z,1.40
2018-12-25T16:29:03.287Z,1.13
2018-12-25T16:31:31.441Z,1.30
2018-12-25T16:33:59.918Z,1.10
2018-12-25T16:36:28.955Z,1.13
2018-12-25T16:39:10.796Z,1.13
2018-12-25T16:41:39.287Z,1.30
2018-12-25T16:44:08.434Z,1.40
2018-12-25T16:46:36.617Z,0.90
2018-12-25T16:49:04.693Z,1.00
2018-12-25T16:51:32.907Z,0.90
2018-12-25T16:54:00.949Z,1.30
2018-12-25T16:56:29.040Z,1.30
2018-12-25T16:58:57.197Z,1.13
2018-12-25T17:01:26.234Z,0.73
2018-12-25T17:03:54.600Z,1.00
2018-12-25T17:06:22.763Z,1.07
2018-12-25T17:08:50.928Z,1.30
2018-12-25T17:11:19.085Z,3.17
2018-12-25T17:13:47.745Z,3.30
2018-12-25T17:16:15.863Z,2.30
2018-12-25T17:18:44.084Z,1.40
2018-12-25T17:21:12.166Z,1.40
2018-12-25T17:23:40.388Z,1.00
2018-12-25T17:26:08.509Z,1.43
2018-12-25T17:28:36.701Z,1.33
2018-12-25T17:31:04.953Z,1.40
2018-12-25T17:33:33.172Z,1.30
2018-12-25T17:36:01.415Z,1.43
2018-12-25T17:38:29.641Z,1.10
2018-12-25T17:40:57.730Z,1.20
2018-12-25T17:43:25.919Z,1.30
2018-12-25T17:45:54.112Z,1.70
2018-12-25T17:48:22.405Z,1.23
2018-12-25T17:50:50.913Z,1.70
2018-12-25T17:53:19.149Z,1.10
2018-12-25T17:55:47.353Z,1.10
2018-12-25T17:58:15.890Z,1.20
2018-12-25T18:00:44.151Z,0.90
2018-12-25T18:03:13.100Z,1.00
2018-12-25T18:05:41.348Z,1.10
2018-12-25T18:08:09.547Z,1.00
2018-12-25T18:10:39.067Z,1.00
2018-12-25T18:13:07.204Z,1.23
2018-12-25T18:15:36.405Z,2.20
2018-12-25T18:18:04.689Z,2.07
2018-12-25T18:20:41.108Z,2.20
2018-12-25T18:23:09.357Z,1.50
2018-12-25T18:25:37.469Z,1.43
2018-12-25T18:28:05.701Z,1.20
2018-12-25T18:30:33.810Z,1.30
2018-12-25T18:33:02.303Z,1.10
2018-12-25T18:35:30.470Z,1.10
2018-12-25T18:37:58.679Z,1.20
2018-12-25T18:40:26.790Z,1.20
2018-12-25T18:42:55.032Z,1.30
2018-12-25T18:45:23.086Z,1.10
2018-12-25T18:47:51.231Z,1.30
2018-12-25T18:50:19.476Z,2.83
2018-12-25T18:52:47.643Z,1.43
2018-12-25T18:55:15.952Z,1.40
2018-12-25T18:57:44.033Z,1.00
2018-12-25T19:00:12.196Z,1.10
2018-12-25T19:02:41.227Z,1.20
2018-12-25T19:05:09.465Z,1.10
2018-12-25T19:07:37.761Z,0.90
2018-12-25T19:10:08.518Z,1.17
2018-12-25T19:12:36.756Z,1.10
2018-12-25T19:15:24.827Z,1.10
2018-12-25T19:17:55.041Z,1.20
2018-12-25T19:20:23.189Z,1.00
2018-12-25T19:22:52.264Z,1.17
2018-12-25T19:25:20.493Z,1.00
2018-12-25T19:27:48.641Z,1.00
2018-12-25T19:30:18.078Z,0.93
2018-12-25T19:32:46.180Z,1.00
2018-12-25T19:35:14.432Z,1.00
2018-12-25T19:37:42.548Z,1.37
2018-12-25T19:40:11.369Z,1.10
2018-12-25T19:42:39.917Z,1.10
2018-12-25T19:45:08.100Z,1.10
2018-12-25T19:47:36.344Z,1.10
2018-12-25T19:50:04.790Z,1.20
2018-12-25T19:52:32.951Z,1.10
2018-12-25T19:55:03.436Z,1.20
2018-12-25T19:57:32.071Z,1.20
2018-12-25T20:00:01.041Z,1.07
2018-12-25T20:02:29.812Z,1.00
2018-12-25T20:05:42.971Z,1.60
2018-12-25T20:08:54.433Z,1.07
2018-12-25T20:12:11.113Z,1.40
2018-12-25T20:15:26.997Z,1.40
2018-12-25T20:18:42.619Z,1.60
2018-12-25T20:21:42.439Z,1.70
2018-12-25T20:24:55.910Z,1.30
2018-12-25T20:28:20.709Z,1.20
2018-12-25T20:31:28.305Z,1.20
2018-12-25T20:34:52.224Z,1.40
2018-12-25T20:38:10.497Z,1.20
2018-12-25T20:41:09.029Z,1.20
2018-12-25T20:44:06.757Z,1.40
2018-12-25T20:47:15.541Z,1.13
2018-12-25T20:50:37.285Z,1.40
2018-12-25T20:53:48.861Z,1.20
2018-12-25T20:57:07.589Z,1.53
2018-12-25T21:00:10.928Z,1.40
2018-12-25T21:03:42.461Z,1.40
2018-12-25T21:06:53.736Z,1.10
2018-12-25T21:10:12.710Z,1.27
2018-12-25T21:13:19.112Z,1.20
2018-12-25T21:16:24.097Z,1.40
2018-12-25T21:19:30.822Z,1.60
2018-12-25T21:22:48.389Z,1.90
2018-12-25T21:25:52.398Z,2.30
2018-12-25T21:28:19.365Z,1.20
2018-12-25T21:30:47.752Z,1.17
2018-12-25T21:33:16.049Z,1.30
2018-12-25T21:35:44.325Z,1.30
2018-12-25T21:38:12.626Z,1.50
2018-12-25T21:40:40.942Z,2.90
2018-12-25T21:43:13.630Z,3.50
2018-12-25T21:45:43.893Z,1.60
2018-12-25T21:48:12.160Z,4.00
2018-12-25T21:50:40.360Z,1.67
2018-12-25T21:53:09.743Z,1.20
2018-12-25T21:55:38.959Z,1.20
2018-12-25T21:58:07.824Z,1.33
2018-12-25T22:00:36.213Z,1.20
2018-12-25T22:03:04.555Z,1.10
2018-12-25T22:05:32.727Z,1.40
2018-12-25T22:08:00.969Z,1.47
2018-12-25T22:10:29.084Z,1.10
2018-12-25T22:12:57.345Z,1.33
2018-12-25T22:15:25.516Z,1.53
2018-12-25T22:17:53.818Z,1.20
2018-12-25T22:20:25.261Z,1.83
2018-12-25T22:22:53.492Z,1.40
2018-12-25T22:25:27.095Z,1.67
2018-12-25T22:27:51.965Z,3.33
2018-12-25T22:30:20.191Z,1.97
2018-12-25T22:32:48.295Z,2.63
2018-12-25T22:35:16.381Z,1.20
2018-12-25T22:37:44.596Z,1.30
2018-12-25T22:40:13.042Z,1.70
2018-12-25T22:42:41.209Z,1.70
2018-12-25T22:45:09.391Z,1.50
2018-12-25T22:47:37.860Z,1.80
2018-12-25T22:50:06.241Z,1.60
2018-12-25T22:52:34.412Z,1.80
2018-12-25T22:55:02.585Z,1.80
2018-12-25T22:57:30.840Z,1.53
2018-12-25T22:59:58.987Z,1.60
2018-12-25T23:02:27.140Z,1.87
2018-12-25T23:04:55.284Z,1.30
2018-12-25T23:07:23.813Z,1.20
2018-12-25T23:09:51.911Z,1.33
2018-12-25T23:12:20.049Z,1.37
2018-12-25T23:14:48.268Z,1.30
2018-12-25T23:17:16.393Z,1.87
2018-12-25T23:19:44.613Z,2.20
2018-12-25T23:22:12.749Z,2.23
2018-12-25T23:24:40.906Z,2.50
2018-12-25T23:27:09.086Z,2.30
2018-12-25T23:29:39.792Z,2.73
2018-12-25T23:32:07.984Z,3.07
2018-12-25T23:34:36.129Z,2.80
2018-12-25T23:37:05.429Z,5.50
2018-12-25T23:39:33.571Z,2.10
2018-12-25T23:42:01.780Z,2.50
2018-12-25T23:44:30.690Z,4.43
2018-12-25T23:46:58.906Z,4.60
2018-12-25T23:49:27.066Z,2.60
2018-12-25T23:51:55.262Z,4.00
2018-12-25T23:54:23.425Z,3.10
2018-12-25T23:56:51.578Z,4.00
2018-12-25T23:59:19.710Z,4.40
